Myrtle, Missouri
Current Conditions -  °F | °C
As of 10:15 AM on Monday 24 Nov 2014 (Local Time) from KARG Reporting Station
Clear Clear  
Wind Chill: 43°   Ceiling: Unl
Heat Index: 48°   Visibility: 10mi
Dew Point: 28°   Wind: 14mph
Humidity: 46%   Direction: 270°W
Pressure: 29.83"   Gusts: 21mph
Location:  36.51°N, 91.27°W
Report Text: KARG 241615Z AUTO 27012G18KT 10SM CLR 09/M02 A2983 RMK AO1
Loading
Personal Weather Stations






























Interactive Weather Map New forecast layout! Learn more

10-Day Weather Forecast

Advertisements
Track Severe Weather on mobile